createdAt,value
2018-10-06T00:00:01.496Z,12.88
2018-10-06T00:01:01.397Z,12.90
2018-10-06T00:02:01.371Z,12.91
2018-10-06T00:03:01.313Z,12.88
2018-10-06T00:04:01.263Z,12.87
2018-10-06T00:05:01.202Z,12.71
2018-10-06T00:06:01.146Z,12.73
2018-10-06T00:07:01.124Z,12.76
2018-10-06T00:08:01.044Z,12.76
2018-10-06T00:09:00.994Z,12.83
2018-10-06T00:10:00.944Z,12.78
2018-10-06T00:11:00.894Z,12.80
2018-10-06T00:12:00.870Z,12.76
2018-10-06T00:13:00.801Z,12.83
2018-10-06T00:14:00.747Z,12.80
2018-10-06T00:15:00.696Z,12.80
2018-10-06T00:16:00.643Z,12.80
2018-10-06T00:17:00.627Z,12.69
2018-10-06T00:18:00.555Z,12.65
2018-10-06T00:19:00.496Z,12.73
2018-10-06T00:20:00.445Z,12.64
2018-10-06T00:21:00.400Z,12.68
2018-10-06T00:22:00.374Z,12.71
2018-10-06T00:23:00.298Z,12.68
2018-10-06T00:24:00.250Z,12.71
2018-10-06T00:25:00.194Z,12.65
2018-10-06T00:26:00.155Z,12.64
2018-10-06T00:27:00.131Z,12.64
2018-10-06T00:28:00.057Z,12.63
2018-10-06T00:28:59.999Z,12.61
2018-10-06T00:29:59.955Z,12.55
2018-10-06T00:30:59.908Z,12.60
2018-10-06T00:31:59.871Z,12.55
2018-10-06T00:32:59.805Z,12.55
2018-10-06T00:33:59.760Z,12.53
2018-10-06T00:34:59.698Z,12.54
2018-10-06T00:35:59.648Z,12.54
2018-10-06T00:36:59.627Z,12.46
2018-10-06T00:37:59.555Z,12.51
2018-10-06T00:38:59.495Z,12.45
2018-10-06T00:39:59.451Z,12.43
2018-10-06T00:40:59.399Z,12.54
2018-10-06T00:41:59.461Z,12.39
2018-10-06T00:42:59.294Z,12.39
2018-10-06T00:43:59.255Z,12.43
2018-10-06T00:44:59.198Z,12.42
2018-10-06T00:45:59.164Z,12.43
2018-10-06T00:46:59.144Z,12.33
2018-10-06T00:47:59.076Z,12.35
2018-10-06T00:48:58.997Z,12.36
2018-10-06T00:49:58.964Z,12.28
2018-10-06T00:50:58.902Z,12.36
2018-10-06T00:51:58.859Z,12.22
2018-10-06T00:52:58.820Z,12.36
2018-10-06T00:53:58.746Z,12.25
2018-10-06T00:54:58.692Z,12.20
2018-10-06T00:55:58.645Z,12.25
2018-10-06T00:56:58.601Z,12.25
2018-10-06T00:57:58.574Z,12.36
2018-10-06T00:58:58.528Z,12.33
2018-10-06T00:59:58.451Z,12.24
2018-10-06T01:00:58.391Z,12.24
2018-10-06T01:01:58.353Z,12.36
2018-10-06T01:02:58.323Z,12.20
2018-10-06T01:03:58.260Z,12.21
2018-10-06T01:04:58.197Z,12.30
2018-10-06T01:05:58.153Z,12.21
2018-10-06T01:06:58.098Z,12.28
2018-10-06T01:07:58.078Z,12.18
2018-10-06T01:08:57.993Z,12.20
2018-10-06T01:09:57.953Z,12.20
2018-10-06T01:10:57.895Z,12.17
2018-10-06T01:11:57.841Z,12.21
2018-10-06T01:12:57.814Z,12.17
2018-10-06T01:13:57.758Z,12.22
2018-10-06T01:14:57.710Z,12.22
2018-10-06T01:15:57.657Z,12.21
2018-10-06T01:16:57.627Z,12.09
2018-10-06T01:17:57.590Z,12.17
2018-10-06T01:18:57.511Z,12.20
2018-10-06T01:19:57.451Z,12.10
2018-10-06T01:20:57.404Z,12.20
2018-10-06T01:21:57.374Z,12.09
2018-10-06T01:22:57.325Z,12.10
2018-10-06T01:23:57.248Z,12.07
2018-10-06T01:24:57.200Z,12.10
2018-10-06T01:25:57.141Z,12.09
2018-10-06T01:26:57.087Z,12.14
2018-10-06T01:27:57.105Z,12.13
2018-10-06T01:28:57.005Z,12.10
2018-10-06T01:29:56.990Z,12.10
2018-10-06T01:30:56.924Z,12.13
2018-10-06T01:31:56.854Z,12.10
2018-10-06T01:32:56.856Z,12.05
2018-10-06T01:33:56.766Z,12.10
2018-10-06T01:34:56.694Z,12.10
2018-10-06T01:35:56.645Z,12.09
2018-10-06T01:36:56.598Z,12.09
2018-10-06T01:37:56.558Z,12.09
2018-10-06T01:38:56.492Z,12.09
2018-10-06T01:39:56.436Z,12.07
2018-10-06T01:40:56.402Z,12.09
2018-10-06T01:41:56.342Z,12.10
2018-10-06T01:42:56.308Z,12.02
2018-10-06T01:43:56.246Z,11.97
2018-10-06T01:44:56.187Z,12.02
2018-10-06T01:45:56.134Z,11.97
2018-10-06T01:46:56.086Z,11.88
2018-10-06T01:47:56.055Z,11.88
2018-10-06T01:48:55.989Z,11.90
2018-10-06T01:49:56.001Z,11.80
2018-10-06T01:50:55.917Z,11.79
2018-10-06T01:51:55.854Z,11.81
2018-10-06T01:52:55.836Z,11.80
2018-10-06T01:53:55.728Z,11.79
2018-10-06T01:54:55.709Z,11.71
2018-10-06T01:55:55.633Z,11.69
2018-10-06T01:56:55.578Z,11.69
2018-10-06T01:57:55.551Z,11.58
2018-10-06T01:58:55.485Z,11.58
2018-10-06T01:59:55.427Z,11.65
2018-10-06T02:00:55.391Z,11.62
2018-10-06T02:01:55.325Z,11.59
2018-10-06T02:02:55.313Z,11.58
2018-10-06T02:03:55.229Z,11.63
2018-10-06T02:04:55.185Z,11.59
2018-10-06T02:05:55.129Z,11.56
2018-10-06T02:06:55.074Z,11.54
2018-10-06T02:07:55.049Z,11.62
2018-10-06T02:08:54.976Z,11.62
2018-10-06T02:09:54.921Z,11.59
2018-10-06T02:10:54.876Z,11.53
2018-10-06T02:11:54.838Z,11.46
2018-10-06T02:12:54.813Z,11.61
2018-10-06T02:13:54.737Z,11.48
2018-10-06T02:14:54.673Z,11.46
2018-10-06T02:15:54.628Z,11.50
2018-10-06T02:16:54.570Z,11.51
2018-10-06T02:17:54.551Z,11.47
2018-10-06T02:18:54.497Z,11.47
2018-10-06T02:19:54.418Z,11.46
2018-10-06T02:20:54.376Z,11.46
2018-10-06T02:21:54.327Z,11.47
2018-10-06T02:22:55.144Z,11.43
2018-10-06T02:23:54.237Z,11.37
2018-10-06T02:24:54.183Z,11.30
2018-10-06T02:25:54.112Z,11.22
2018-10-06T02:26:54.062Z,11.26
2018-10-06T02:27:54.012Z,11.30
2018-10-06T02:28:53.991Z,11.25
2018-10-06T02:29:53.971Z,11.29
2018-10-06T02:30:53.919Z,11.28
2018-10-06T02:31:53.833Z,11.37
2018-10-06T02:32:53.768Z,11.35
2018-10-06T02:33:53.733Z,11.37
2018-10-06T02:34:53.658Z,11.37
2018-10-06T02:35:53.631Z,11.29
2018-10-06T02:36:53.608Z,11.37
2018-10-06T02:37:53.504Z,11.37
2018-10-06T02:38:53.487Z,11.40
2018-10-06T02:39:53.429Z,11.37
2018-10-06T02:40:53.354Z,11.30
2018-10-06T02:41:53.306Z,11.28
2018-10-06T02:42:53.253Z,11.28
2018-10-06T02:43:53.236Z,11.33
2018-10-06T02:44:53.152Z,11.25
2018-10-06T02:45:53.101Z,11.20
2018-10-06T02:46:53.062Z,11.26
2018-10-06T02:47:53.012Z,11.25
2018-10-06T02:48:52.977Z,11.29
2018-10-06T02:49:52.907Z,11.23
2018-10-06T02:50:52.853Z,11.19
2018-10-06T02:51:52.800Z,11.14
2018-10-06T02:52:52.756Z,11.17
2018-10-06T02:53:52.728Z,11.20
2018-10-06T02:54:52.656Z,11.15
2018-10-06T02:55:52.603Z,11.10
2018-10-06T02:56:52.548Z,11.22
2018-10-06T02:57:52.504Z,11.20
2018-10-06T02:58:52.469Z,11.07
2018-10-06T02:59:52.391Z,11.15
2018-10-06T03:00:52.357Z,11.19
2018-10-06T03:01:52.293Z,11.12
2018-10-06T03:02:52.248Z,11.23
2018-10-06T03:03:52.220Z,11.17
2018-10-06T03:04:52.141Z,11.20
2018-10-06T03:05:52.088Z,11.22
2018-10-06T03:06:52.051Z,11.20
2018-10-06T03:07:51.986Z,11.07
2018-10-06T03:08:51.975Z,11.22
2018-10-06T03:09:51.897Z,11.15
2018-10-06T03:10:51.840Z,11.23
2018-10-06T03:11:51.796Z,11.23
2018-10-06T03:12:51.745Z,11.15
2018-10-06T03:13:51.737Z,11.12
2018-10-06T03:14:51.639Z,11.11
2018-10-06T03:15:51.580Z,11.11
2018-10-06T03:16:51.535Z,11.07
2018-10-06T03:17:51.478Z,11.05
2018-10-06T03:18:51.450Z,11.01
2018-10-06T03:19:51.376Z,11.07
2018-10-06T03:20:51.327Z,11.03
2018-10-06T03:21:51.276Z,10.97
2018-10-06T03:22:51.230Z,11.01
2018-10-06T03:23:51.215Z,11.01
2018-10-06T03:24:51.133Z,11.05
2018-10-06T03:25:51.085Z,11.03
2018-10-06T03:26:51.031Z,11.05
2018-10-06T03:27:50.983Z,11.04
2018-10-06T03:28:50.976Z,11.04
2018-10-06T03:29:50.878Z,11.03
2018-10-06T03:30:50.820Z,11.01
2018-10-06T03:31:50.767Z,11.05
2018-10-06T03:32:50.720Z,11.01
2018-10-06T03:33:50.691Z,11.04
2018-10-06T03:34:50.611Z,11.04
2018-10-06T03:35:50.574Z,11.03
2018-10-06T03:36:50.527Z,11.01
2018-10-06T03:37:50.471Z,11.07
2018-10-06T03:38:50.452Z,11.04
2018-10-06T03:39:50.376Z,11.01
2018-10-06T03:40:50.309Z,11.08
2018-10-06T03:41:50.261Z,11.04
2018-10-06T03:42:50.220Z,11.01
2018-10-06T03:43:50.157Z,11.01
2018-10-06T03:44:50.132Z,11.01
2018-10-06T03:45:50.058Z,11.01
2018-10-06T03:46:50.015Z,11.07
2018-10-06T03:47:49.968Z,11.07
2018-10-06T03:48:49.906Z,11.08
2018-10-06T03:49:49.875Z,11.04
2018-10-06T03:50:49.801Z,11.08
2018-10-06T03:51:49.751Z,11.10
2018-10-06T03:52:49.700Z,11.07
2018-10-06T03:53:49.681Z,11.04
2018-10-06T03:54:49.622Z,11.05
2018-10-06T03:55:49.550Z,11.11
2018-10-06T03:56:49.501Z,11.12
2018-10-06T03:57:49.467Z,11.08
2018-10-06T03:58:49.397Z,11.10
2018-10-06T03:59:49.371Z,11.07
2018-10-06T04:00:49.295Z,11.04
2018-10-06T04:01:49.251Z,11.05
2018-10-06T04:02:49.194Z,11.08
2018-10-06T04:03:49.154Z,11.04
2018-10-06T04:04:49.138Z,11.08
2018-10-06T04:05:49.055Z,11.10
2018-10-06T04:06:48.991Z,11.14
2018-10-06T04:07:48.937Z,11.11
2018-10-06T04:08:48.889Z,11.10
2018-10-06T04:09:48.887Z,11.04
2018-10-06T04:10:48.785Z,11.04
2018-10-06T04:11:48.731Z,11.08
2018-10-06T04:12:48.690Z,11.01
2018-10-06T04:13:48.641Z,11.01
2018-10-06T04:14:48.620Z,11.01
2018-10-06T04:15:48.532Z,11.01
2018-10-06T04:16:48.483Z,11.04
2018-10-06T04:17:48.429Z,10.92
2018-10-06T04:18:48.381Z,10.95
2018-10-06T04:19:48.387Z,10.96
2018-10-06T04:20:48.274Z,10.89
2018-10-06T04:21:48.234Z,10.71
2018-10-06T04:22:48.172Z,10.78
2018-10-06T04:23:48.121Z,10.65
2018-10-06T04:24:48.102Z,10.62
2018-10-06T04:25:48.044Z,10.64
2018-10-06T04:26:47.972Z,10.65
2018-10-06T04:27:47.931Z,10.64
2018-10-06T04:28:47.873Z,10.67
2018-10-06T04:29:47.819Z,10.70
2018-10-06T04:30:47.825Z,10.53
2018-10-06T04:31:47.728Z,10.59
2018-10-06T04:32:47.664Z,10.56
2018-10-06T04:33:47.613Z,10.60
2018-10-06T04:34:47.569Z,10.49
2018-10-06T04:35:47.540Z,10.57
2018-10-06T04:36:47.473Z,10.48
2018-10-06T04:37:47.426Z,10.53
2018-10-06T04:38:47.366Z,10.53
2018-10-06T04:39:47.314Z,10.46
2018-10-06T04:40:47.295Z,10.45
2018-10-06T04:41:47.203Z,10.49
2018-10-06T04:42:47.153Z,10.40
2018-10-06T04:43:47.103Z,10.45
2018-10-06T04:44:47.058Z,10.38
2018-10-06T04:45:47.025Z,10.43
2018-10-06T04:46:46.950Z,10.38
2018-10-06T04:47:46.895Z,10.48
2018-10-06T04:48:46.847Z,10.41
2018-10-06T04:49:46.795Z,10.48
2018-10-06T04:50:46.804Z,10.52
2018-10-06T04:51:46.703Z,10.57
2018-10-06T04:52:46.657Z,10.60
2018-10-06T04:53:46.601Z,10.64
2018-10-06T04:54:46.547Z,10.57
2018-10-06T04:55:46.490Z,10.59
2018-10-06T04:56:46.461Z,10.48
2018-10-06T04:57:46.415Z,10.56
2018-10-06T04:58:46.355Z,10.59
2018-10-06T04:59:46.290Z,10.60
2018-10-06T05:00:46.247Z,10.56
2018-10-06T05:01:46.206Z,10.59
2018-10-06T05:02:46.133Z,10.54
2018-10-06T05:03:46.101Z,10.54
2018-10-06T05:04:46.050Z,10.53
2018-10-06T05:05:45.987Z,10.57
2018-10-06T05:06:45.959Z,10.45
2018-10-06T05:07:45.877Z,10.41
2018-10-06T05:08:45.823Z,10.35
2018-10-06T05:09:45.774Z,10.28
2018-10-06T05:10:45.739Z,10.40
2018-10-06T05:11:45.698Z,10.40
2018-10-06T05:12:45.618Z,10.35
2018-10-06T05:13:45.572Z,10.33
2018-10-06T05:14:45.520Z,10.28
2018-10-06T05:15:45.475Z,10.27
2018-10-06T05:16:45.454Z,10.28
2018-10-06T05:17:45.370Z,10.23
2018-10-06T05:18:45.313Z,10.13
2018-10-06T05:19:45.263Z,10.26
2018-10-06T05:20:45.213Z,10.26
2018-10-06T05:21:45.184Z,10.23
2018-10-06T05:22:45.112Z,10.15
2018-10-06T05:23:45.179Z,10.15
2018-10-06T05:24:45.019Z,10.18
2018-10-06T05:25:44.951Z,10.20
2018-10-06T05:26:44.928Z,10.06
2018-10-06T05:27:44.854Z,10.06
2018-10-06T05:28:44.802Z,10.06
2018-10-06T05:29:44.750Z,10.04
2018-10-06T05:30:44.708Z,10.02
2018-10-06T05:31:44.671Z,10.12
2018-10-06T05:32:44.599Z,10.04
2018-10-06T05:33:44.541Z,10.12
2018-10-06T05:34:44.494Z,10.00
2018-10-06T05:35:44.447Z,10.15
2018-10-06T05:36:44.415Z,9.95
2018-10-06T05:37:44.346Z,10.00
2018-10-06T05:38:44.288Z,9.98
2018-10-06T05:39:44.238Z,10.01
2018-10-06T05:40:44.185Z,10.00
2018-10-06T05:41:44.154Z,10.01
2018-10-06T05:42:44.080Z,9.98
2018-10-06T05:43:44.031Z,10.01
2018-10-06T05:44:43.979Z,10.01
2018-10-06T05:45:43.927Z,10.00
2018-10-06T05:46:43.901Z,9.90
2018-10-06T05:47:43.822Z,9.98
2018-10-06T05:48:43.784Z,10.01
2018-10-06T05:49:43.724Z,9.93
2018-10-06T05:50:43.676Z,9.97
2018-10-06T05:51:43.652Z,10.01
2018-10-06T05:52:43.571Z,10.02
2018-10-06T05:53:43.528Z,10.01
2018-10-06T05:54:43.466Z,9.97
2018-10-06T05:55:43.425Z,10.12
2018-10-06T05:56:43.396Z,10.00
2018-10-06T05:57:43.311Z,10.02
2018-10-06T05:58:43.276Z,10.09
2018-10-06T05:59:43.212Z,10.12
2018-10-06T06:00:43.158Z,10.10
2018-10-06T06:01:43.129Z,10.12
2018-10-06T06:02:43.076Z,10.16
2018-10-06T06:03:43.022Z,10.15
2018-10-06T06:04:42.946Z,10.18
2018-10-06T06:05:42.913Z,10.16
2018-10-06T06:06:42.854Z,10.22
2018-10-06T06:07:42.819Z,10.20
2018-10-06T06:08:42.745Z,10.19
2018-10-06T06:09:42.709Z,10.23
2018-10-06T06:10:42.652Z,10.19
2018-10-06T06:11:42.585Z,10.13
2018-10-06T06:12:42.561Z,10.18
2018-10-06T06:13:42.491Z,10.15
2018-10-06T06:14:42.441Z,10.13
2018-10-06T06:15:42.393Z,10.18
2018-10-06T06:16:42.338Z,10.12
2018-10-06T06:17:42.322Z,10.13
2018-10-06T06:18:42.242Z,10.15
2018-10-06T06:19:42.188Z,10.18
2018-10-06T06:20:42.129Z,10.13
2018-10-06T06:21:42.089Z,10.12
2018-10-06T06:22:42.071Z,10.16
2018-10-06T06:23:42.021Z,10.13
2018-10-06T06:24:41.949Z,10.20
2018-10-06T06:25:41.898Z,10.23
2018-10-06T06:26:41.829Z,10.33
2018-10-06T06:27:41.798Z,10.34
2018-10-06T06:28:41.717Z,10.40
2018-10-06T06:29:41.667Z,10.46
2018-10-06T06:30:41.685Z,10.52
2018-10-06T06:31:41.568Z,10.54
2018-10-06T06:32:41.543Z,10.49
2018-10-06T06:33:41.481Z,10.54
2018-10-06T06:34:41.413Z,10.62
2018-10-06T06:35:41.364Z,10.64
2018-10-06T06:36:41.304Z,10.70
2018-10-06T06:37:41.302Z,10.70
2018-10-06T06:38:41.224Z,10.79
2018-10-06T06:39:41.164Z,10.83
2018-10-06T06:40:41.106Z,10.87
2018-10-06T06:41:41.050Z,10.90
2018-10-06T06:42:41.024Z,11.00
2018-10-06T06:43:40.979Z,11.10
2018-10-06T06:44:40.938Z,11.17
2018-10-06T06:45:40.859Z,11.23
2018-10-06T06:46:40.808Z,11.32
2018-10-06T06:47:40.793Z,11.33
2018-10-06T06:48:40.695Z,11.47
2018-10-06T06:49:40.643Z,11.65
2018-10-06T06:50:40.597Z,11.72
2018-10-06T06:51:40.543Z,11.80
2018-10-06T06:52:40.529Z,11.87
2018-10-06T06:53:40.463Z,11.99
2018-10-06T06:54:40.388Z,12.09
2018-10-06T06:55:40.340Z,12.18
2018-10-06T06:56:40.309Z,12.22
2018-10-06T06:57:40.237Z,12.28
2018-10-06T06:58:40.213Z,12.43
2018-10-06T06:59:40.158Z,12.54
2018-10-06T07:00:40.119Z,12.65
2018-10-06T07:01:40.085Z,12.76
2018-10-06T07:02:40.047Z,12.85
2018-10-06T07:03:39.975Z,12.94
2018-10-06T07:04:39.894Z,13.00
2018-10-06T07:05:39.898Z,13.06
2018-10-06T07:06:39.795Z,13.18
2018-10-06T07:07:39.741Z,13.29
2018-10-06T07:08:39.731Z,13.37
2018-10-06T07:09:39.637Z,13.31
2018-10-06T07:10:39.586Z,13.47
2018-10-06T07:11:39.533Z,13.56
2018-10-06T07:12:39.551Z,13.47
2018-10-06T07:13:39.467Z,13.64
2018-10-06T07:14:39.384Z,13.67
2018-10-06T07:15:39.355Z,13.67
2018-10-06T07:16:39.287Z,13.80
2018-10-06T07:17:39.237Z,13.92
2018-10-06T07:18:39.338Z,13.92
2018-10-06T07:19:39.137Z,14.00
2018-10-06T07:20:39.099Z,14.08
2018-10-06T07:21:39.039Z,14.13
2018-10-06T07:22:38.989Z,14.04
2018-10-06T07:23:38.963Z,14.18
2018-10-06T07:24:38.960Z,14.23
2018-10-06T07:25:38.934Z,14.28
2018-10-06T07:26:38.793Z,14.37
2018-10-06T07:27:38.745Z,14.38
2018-10-06T07:28:38.778Z,14.44
2018-10-06T07:29:38.654Z,14.41
2018-10-06T07:30:38.599Z,14.45
2018-10-06T07:31:38.547Z,14.43
2018-10-06T07:32:38.504Z,14.45
2018-10-06T07:33:38.474Z,14.48
2018-10-06T07:34:38.400Z,14.48
2018-10-06T07:35:38.361Z,14.53
2018-10-06T07:36:38.304Z,14.55
2018-10-06T07:37:38.251Z,14.56
2018-10-06T07:38:38.238Z,14.58
2018-10-06T07:39:38.162Z,14.66
2018-10-06T07:40:38.108Z,14.69
2018-10-06T07:41:38.064Z,14.56
2018-10-06T07:42:38.006Z,14.66
2018-10-06T07:43:37.961Z,14.69
2018-10-06T07:44:37.945Z,14.68
2018-10-06T07:45:37.863Z,14.62
2018-10-06T07:46:37.827Z,14.65
2018-10-06T07:47:37.761Z,14.81
2018-10-06T07:48:37.719Z,14.85
2018-10-06T07:49:37.688Z,14.99
2018-10-06T07:50:37.634Z,14.91
2018-10-06T07:51:37.572Z,15.17
2018-10-06T07:52:37.531Z,15.14
2018-10-06T07:53:37.471Z,15.21
2018-10-06T07:54:37.471Z,15.25
2018-10-06T07:55:37.413Z,15.32
2018-10-06T07:56:37.327Z,15.36
2018-10-06T07:57:37.278Z,15.44
2018-10-06T07:58:37.227Z,15.48
2018-10-06T07:59:37.216Z,15.60
2018-10-06T08:00:37.129Z,15.62
2018-10-06T08:01:37.095Z,15.69
2018-10-06T08:02:37.032Z,15.77
2018-10-06T08:03:36.987Z,15.87
2018-10-06T08:04:36.964Z,15.88
2018-10-06T08:05:36.895Z,16.09
2018-10-06T08:06:36.842Z,16.10
2018-10-06T08:07:36.798Z,16.17
2018-10-06T08:08:36.748Z,16.16
2018-10-06T08:09:36.722Z,16.06
2018-10-06T08:10:36.643Z,15.95
2018-10-06T08:11:36.599Z,16.02
2018-10-06T08:12:36.552Z,15.98
2018-10-06T08:13:36.499Z,16.01
2018-10-06T08:14:36.501Z,15.95
2018-10-06T08:15:36.404Z,15.98
2018-10-06T08:16:36.360Z,16.08
2018-10-06T08:17:36.306Z,16.06
2018-10-06T08:18:36.257Z,16.20
2018-10-06T08:19:36.208Z,16.25
2018-10-06T08:20:36.184Z,16.35
2018-10-06T08:21:36.119Z,16.32
2018-10-06T08:22:36.064Z,16.49
2018-10-06T08:23:36.015Z,16.51
2018-10-06T08:24:35.966Z,16.66
2018-10-06T08:25:35.953Z,16.74
2018-10-06T08:26:35.884Z,16.94
2018-10-06T08:27:35.829Z,16.87
2018-10-06T08:28:35.783Z,16.99
2018-10-06T08:29:35.727Z,17.06
2018-10-06T08:30:35.720Z,17.11
2018-10-06T08:31:35.643Z,17.14
2018-10-06T08:32:35.597Z,17.26
2018-10-06T08:33:35.536Z,17.33
2018-10-06T08:34:35.505Z,17.35
2018-10-06T08:35:35.473Z,17.41
2018-10-06T08:36:35.410Z,17.38
2018-10-06T08:37:35.356Z,17.41
2018-10-06T08:38:35.297Z,17.42
2018-10-06T08:39:35.269Z,17.54
2018-10-06T08:40:35.225Z,17.59
2018-10-06T08:41:35.172Z,17.64
2018-10-06T08:42:35.161Z,17.70
2018-10-06T08:43:35.059Z,17.67
2018-10-06T08:44:35.020Z,17.71
2018-10-06T08:45:35.010Z,17.65
2018-10-06T08:46:34.924Z,17.63
2018-10-06T08:47:34.892Z,17.57
2018-10-06T08:48:34.820Z,17.35
2018-10-06T08:49:34.775Z,17.30
2018-10-06T08:50:34.758Z,17.31
2018-10-06T08:51:34.679Z,17.29
2018-10-06T08:52:34.645Z,17.38
2018-10-06T08:53:34.586Z,17.33
2018-10-06T08:54:34.544Z,17.37
2018-10-06T08:55:34.513Z,17.30
2018-10-06T08:56:34.527Z,17.30
2018-10-06T08:57:34.435Z,17.35
2018-10-06T08:58:34.346Z,17.38
2018-10-06T08:59:34.302Z,17.56
2018-10-06T09:00:34.293Z,17.65
2018-10-06T09:01:34.232Z,17.85
2018-10-06T09:02:34.173Z,17.89
2018-10-06T09:03:34.159Z,18.04
2018-10-06T09:04:34.069Z,18.04
2018-10-06T09:05:34.052Z,18.13
2018-10-06T09:06:33.981Z,18.25
2018-10-06T09:07:33.921Z,18.33
2018-10-06T09:08:33.875Z,18.28
2018-10-06T09:09:33.823Z,18.40
2018-10-06T09:10:33.814Z,18.43
2018-10-06T09:11:33.727Z,18.44
2018-10-06T09:12:33.683Z,18.62
2018-10-06T09:13:33.638Z,18.67
2018-10-06T09:14:33.598Z,18.66
2018-10-06T09:15:33.566Z,18.81
2018-10-06T09:16:33.505Z,18.75
2018-10-06T09:17:33.451Z,18.74
2018-10-06T09:18:33.423Z,18.74
2018-10-06T09:19:33.358Z,18.59
2018-10-06T09:20:33.327Z,18.62
2018-10-06T09:21:33.260Z,18.58
2018-10-06T09:22:33.214Z,18.77
2018-10-06T09:23:33.165Z,18.73
2018-10-06T09:24:33.126Z,18.83
2018-10-06T09:25:33.097Z,18.80
2018-10-06T09:26:33.023Z,18.83
2018-10-06T09:27:32.980Z,18.78
2018-10-06T09:28:32.935Z,18.80
2018-10-06T09:29:32.879Z,18.81
2018-10-06T09:30:32.870Z,18.77
2018-10-06T09:31:32.795Z,18.59
2018-10-06T09:32:32.743Z,18.66
2018-10-06T09:33:32.701Z,18.70
2018-10-06T09:34:32.654Z,18.63
2018-10-06T09:35:32.624Z,18.62
2018-10-06T09:36:32.550Z,18.53
2018-10-06T09:37:32.503Z,18.48
2018-10-06T09:38:32.477Z,18.40
2018-10-06T09:39:32.429Z,18.49
2018-10-06T09:40:32.397Z,18.43
2018-10-06T09:41:32.320Z,18.49
2018-10-06T09:42:32.361Z,18.62
2018-10-06T09:43:32.227Z,18.70
2018-10-06T09:44:32.182Z,18.73
2018-10-06T09:45:32.196Z,18.73
2018-10-06T09:46:32.086Z,18.73
2018-10-06T09:47:32.032Z,18.77
2018-10-06T09:48:31.991Z,18.78
2018-10-06T09:49:31.960Z,18.63
2018-10-06T09:50:31.912Z,18.77
2018-10-06T09:51:31.869Z,18.90
2018-10-06T09:52:31.813Z,18.89
2018-10-06T09:53:31.763Z,18.85
2018-10-06T09:54:31.721Z,18.98
2018-10-06T09:55:31.662Z,19.00
2018-10-06T09:56:31.639Z,19.07
2018-10-06T09:57:31.571Z,19.07
2018-10-06T09:58:31.523Z,19.00
2018-10-06T09:59:31.565Z,19.00
2018-10-06T10:00:31.436Z,19.07
2018-10-06T10:01:31.407Z,19.04
2018-10-06T10:02:31.333Z,19.18
2018-10-06T10:03:31.284Z,19.23
2018-10-06T10:04:31.239Z,19.29
2018-10-06T10:05:31.248Z,19.18
2018-10-06T10:06:31.171Z,19.29
2018-10-06T10:07:31.120Z,19.30
2018-10-06T10:08:31.052Z,19.41
2018-10-06T10:09:31.077Z,19.42
2018-10-06T10:10:30.959Z,19.54
2018-10-06T10:11:30.979Z,19.66
2018-10-06T10:12:30.910Z,19.66
2018-10-06T10:13:30.831Z,19.69
2018-10-06T10:14:30.772Z,19.81
2018-10-06T10:15:30.771Z,19.97
2018-10-06T10:16:30.712Z,19.88
2018-10-06T10:17:30.690Z,19.97
2018-10-06T10:18:30.661Z,20.03
2018-10-06T10:19:30.537Z,20.06
2018-10-06T10:20:30.491Z,20.03
2018-10-06T10:21:30.490Z,20.04
2018-10-06T10:22:30.542Z,19.86
2018-10-06T10:23:30.436Z,19.85
2018-10-06T10:24:30.302Z,19.92
2018-10-06T10:25:30.256Z,20.00
2018-10-06T10:26:30.236Z,20.04
2018-10-06T10:27:30.169Z,19.96
2018-10-06T10:28:30.244Z,19.91
2018-10-06T10:29:30.077Z,19.89
2018-10-06T10:30:30.029Z,19.99
2018-10-06T10:31:30.005Z,19.99
2018-10-06T10:32:29.938Z,19.99
2018-10-06T10:33:29.883Z,20.01
2018-10-06T10:34:29.899Z,20.17
2018-10-06T10:35:29.795Z,20.19
2018-10-06T10:36:29.783Z,20.25
2018-10-06T10:37:29.826Z,20.22
2018-10-06T10:38:29.667Z,20.22
2018-10-06T10:39:29.775Z,20.22
2018-10-06T10:40:29.559Z,20.24
2018-10-06T10:41:29.539Z,20.21
2018-10-06T10:42:29.466Z,20.21
2018-10-06T10:43:29.435Z,20.19
2018-10-06T10:44:29.428Z,20.17
2018-10-06T10:45:29.335Z,20.26
2018-10-06T10:46:29.306Z,20.33
2018-10-06T10:47:29.238Z,20.33
2018-10-06T10:48:29.186Z,20.39
2018-10-06T10:49:29.151Z,20.50
2018-10-06T10:50:29.118Z,20.55
2018-10-06T10:51:29.088Z,20.59
2018-10-06T10:52:29.010Z,20.69
2018-10-06T10:53:28.962Z,20.69
2018-10-06T10:54:28.938Z,20.66
2018-10-06T10:55:28.918Z,20.71
2018-10-06T10:56:28.839Z,20.65
2018-10-06T10:57:28.785Z,20.71
2018-10-06T10:58:28.723Z,20.56
2018-10-06T10:59:28.741Z,20.67
2018-10-06T11:00:28.665Z,20.71
2018-10-06T11:01:28.585Z,20.71
2018-10-06T11:02:28.559Z,20.63
2018-10-06T11:03:28.562Z,20.62
2018-10-06T11:04:28.475Z,20.67
2018-10-06T11:05:28.398Z,20.75
2018-10-06T11:06:28.363Z,20.81
2018-10-06T11:07:28.334Z,20.80
2018-10-06T11:08:28.266Z,20.74
2018-10-06T11:09:28.228Z,20.78
2018-10-06T11:10:28.192Z,20.89
2018-10-06T11:11:28.146Z,20.87
2018-10-06T11:12:28.106Z,20.87
2018-10-06T11:13:28.027Z,20.96
2018-10-06T11:14:27.995Z,21.00
2018-10-06T11:15:27.936Z,20.93
2018-10-06T11:16:27.887Z,20.93
2018-10-06T11:17:27.913Z,20.92
2018-10-06T11:18:27.804Z,20.96
2018-10-06T11:19:27.756Z,20.96
2018-10-06T11:20:27.708Z,20.99
2018-10-06T11:21:27.663Z,20.99
2018-10-06T11:22:27.646Z,21.08
2018-10-06T11:23:27.571Z,21.15
2018-10-06T11:24:27.523Z,21.22
2018-10-06T11:25:27.471Z,21.27
2018-10-06T11:26:27.432Z,21.32
2018-10-06T11:27:27.408Z,21.27
2018-10-06T11:28:27.333Z,21.36
2018-10-06T11:29:27.292Z,21.29
2018-10-06T11:30:27.239Z,21.29
2018-10-06T11:31:27.200Z,21.40
2018-10-06T11:32:27.180Z,21.42
2018-10-06T11:33:27.112Z,21.37
2018-10-06T11:34:27.070Z,21.40
2018-10-06T11:35:27.023Z,21.30
2018-10-06T11:36:26.982Z,21.43
2018-10-06T11:37:27.034Z,21.35
2018-10-06T11:38:26.879Z,21.29
2018-10-06T11:39:26.825Z,21.29
2018-10-06T11:40:26.779Z,21.33
2018-10-06T11:41:26.743Z,21.35
2018-10-06T11:42:26.711Z,21.36
2018-10-06T11:43:26.647Z,21.32
2018-10-06T11:44:26.602Z,21.43
2018-10-06T11:45:26.558Z,21.37
2018-10-06T11:46:26.514Z,21.47
2018-10-06T11:47:26.481Z,21.54
2018-10-06T11:48:26.421Z,21.54
2018-10-06T11:49:26.368Z,21.45
2018-10-06T11:50:26.414Z,21.42
2018-10-06T11:51:26.280Z,21.54
2018-10-06T11:52:26.267Z,21.59
2018-10-06T11:53:26.186Z,21.59
2018-10-06T11:54:26.146Z,21.61
2018-10-06T11:55:26.093Z,21.63
2018-10-06T11:56:26.054Z,21.74
2018-10-06T11:57:26.021Z,21.88
2018-10-06T11:58:25.961Z,21.84
2018-10-06T11:59:25.906Z,21.89
2018-10-06T12:00:25.938Z,21.90
2018-10-06T12:01:25.816Z,22.03
2018-10-06T12:02:25.791Z,22.01
2018-10-06T12:03:25.726Z,21.99
2018-10-06T12:04:25.678Z,21.92
2018-10-06T12:05:25.650Z,22.03
2018-10-06T12:06:25.621Z,21.88
2018-10-06T12:07:25.575Z,21.98
2018-10-06T12:08:25.503Z,22.03
2018-10-06T12:09:25.468Z,21.98
2018-10-06T12:10:25.420Z,22.03
2018-10-06T12:11:25.374Z,21.93
2018-10-06T12:12:25.343Z,21.90
2018-10-06T12:13:25.274Z,21.89
2018-10-06T12:14:25.236Z,22.04
2018-10-06T12:15:25.196Z,22.08
2018-10-06T12:16:25.158Z,22.17
2018-10-06T12:17:25.131Z,22.15
2018-10-06T12:18:25.040Z,22.20
2018-10-06T12:19:24.991Z,22.23
2018-10-06T12:20:24.986Z,22.22
2018-10-06T12:21:24.915Z,22.14
2018-10-06T12:22:24.907Z,22.15
2018-10-06T12:23:24.836Z,22.20
2018-10-06T12:24:24.793Z,22.13
2018-10-06T12:25:24.733Z,22.13
2018-10-06T12:26:24.677Z,22.20
2018-10-06T12:27:24.632Z,22.26
2018-10-06T12:28:24.620Z,22.22
2018-10-06T12:29:24.548Z,22.23
2018-10-06T12:30:24.499Z,22.25
2018-10-06T12:31:24.479Z,22.30
2018-10-06T12:32:24.421Z,22.29
2018-10-06T12:33:24.390Z,22.32
2018-10-06T12:34:24.317Z,22.25
2018-10-06T12:35:24.292Z,22.28
2018-10-06T12:36:24.242Z,22.20
2018-10-06T12:37:24.188Z,22.19
2018-10-06T12:38:24.170Z,22.28
2018-10-06T12:39:24.089Z,22.29
2018-10-06T12:40:24.045Z,22.41
2018-10-06T12:41:24.022Z,22.45
2018-10-06T12:42:23.971Z,22.40
2018-10-06T12:43:23.953Z,22.45
2018-10-06T12:44:23.859Z,22.50
2018-10-06T12:45:23.823Z,22.45
2018-10-06T12:46:23.769Z,22.51
2018-10-06T12:47:23.728Z,22.51
2018-10-06T12:48:23.708Z,22.54
2018-10-06T12:49:23.672Z,22.47
2018-10-06T12:50:23.594Z,22.48
2018-10-06T12:51:23.580Z,22.56